Time;durP1;ratioP1;P1;durP2;ratioP2;P2;SDS_P1;SDS_P2;PMS_P1;PMS_P2;Temp;Humidity;BMP_temperature;BMP_pressure;BME280_temperature;BME280_humidity;BME280_pressure;Samples;Min_cycle;Max_cycle;Signal;HPM_P1;HPM_P2
2021/03/21 00:00:14;;;;;;;7.47;5.40;;;3.70;67.40;;;;;;5072464;28;20119;-59
2021/03/21 00:02:39;;;;;;;10.40;6.15;;;3.70;67.50;;;;;;5072198;28;20033;-59
2021/03/21 00:05:05;;;;;;;6.68;5.50;;;3.70;67.90;;;;;;5072541;28;20032;-57
2021/03/21 00:07:31;;;;;;;7.00;5.43;;;3.70;68.10;;;;;;5072178;28;20530;-54
2021/03/21 00:09:56;;;;;;;7.50;5.65;;;3.70;68.00;;;;;;5071918;28;20064;-56
2021/03/21 00:12:22;;;;;;;6.85;5.28;;;3.70;68.40;;;;;;5054104;28;20434;-59
2021/03/21 00:14:48;;;;;;;8.25;6.07;;;3.60;68.60;;;;;;5072639;28;20059;-59
2021/03/21 00:17:13;;;;;;;12.40;6.75;;;3.60;68.50;;;;;;5072176;28;20098;-58
2021/03/21 00:19:39;;;;;;;8.48;5.15;;;3.70;68.80;;;;;;5067661;28;20024;-58
2021/03/21 00:22:05;;;;;;;8.65;5.68;;;3.70;68.70;;;;;;5035038;28;20044;-59
2021/03/21 00:24:30;;;;;;;10.07;6.30;;;3.70;68.80;;;;;;5054566;28;20108;-55
2021/03/21 00:26:56;;;;;;;7.25;5.45;;;3.70;69.10;;;;;;5067068;28;20453;-55
2021/03/21 00:29:21;;;;;;;9.88;6.15;;;3.70;69.10;;;;;;5060131;28;20389;-59
2021/03/21 00:31:47;;;;;;;8.60;5.45;;;3.80;69.60;;;;;;5050499;28;20457;-58
2021/03/21 00:34:12;;;;;;;8.27;6.25;;;3.70;69.40;;;;;;5075097;28;20024;-57
2021/03/21 00:36:38;;;;;;;10.98;6.55;;;3.70;69.60;;;;;;5074511;28;20550;-59
2021/03/21 00:39:04;;;;;;;9.02;5.90;;;3.70;69.70;;;;;;5055546;28;20029;-59
2021/03/21 00:41:30;;;;;;;8.10;5.70;;;3.60;69.90;;;;;;5055348;28;20102;-60
2021/03/21 00:43:57;;;;;;;10.25;6.55;;;3.60;70.10;;;;;;5073605;28;20415;-58
2021/03/21 00:46:25;;;;;;;8.25;5.97;;;3.60;70.20;;;;;;5074285;28;20055;-57
2021/03/21 00:48:51;;;;;;;7.82;6.07;;;3.60;70.50;;;;;;5037281;28;20075;-56
2021/03/21 00:51:17;;;;;;;10.52;6.20;;;3.80;70.20;;;;;;5054119;28;20033;-58
2021/03/21 00:53:44;;;;;;;8.45;5.72;;;3.80;70.20;;;;;;5092253;28;20043;-59
2021/03/21 00:56:26;;;;;;;9.90;6.30;;;3.70;70.30;;;;;;5082742;28;20463;-57
2021/03/21 00:58:52;;;;;;;11.10;6.72;;;3.80;70.30;;;;;;5051363;28;20376;-57
2021/03/21 01:01:17;;;;;;;8.77;6.50;;;3.70;70.50;;;;;;5069178;28;20054;-59
2021/03/21 01:03:43;;;;;;;10.07;7.45;;;3.80;70.40;;;;;;5068630;28;20040;-58
2021/03/21 01:06:08;;;;;;;9.15;6.35;;;3.80;70.50;;;;;;5070855;28;20028;-59
2021/03/21 01:08:37;;;;;;;8.95;6.05;;;3.90;70.20;;;;;;5070127;28;20067;-59
2021/03/21 01:11:08;;;;;;;9.60;6.68;;;3.90;70.10;;;;;;5071009;28;20032;-57
2021/03/21 01:13:34;;;;;;;9.43;6.13;;;3.80;70.50;;;;;;5071339;28;20040;-59
2021/03/21 01:16:03;;;;;;;12.23;8.27;;;3.80;71.00;;;;;;5070506;28;20514;-59
2021/03/21 01:18:32;;;;;;;10.43;7.00;;;3.90;70.90;;;;;;5066888;28;20031;-58
2021/03/21 01:20:59;;;;;;;10.05;7.43;;;3.80;71.20;;;;;;5053001;28;20081;-57
2021/03/21 01:23:25;;;;;;;11.52;8.20;;;3.90;71.20;;;;;;5067998;28;20039;-59
2021/03/21 01:25:52;;;;;;;11.38;7.80;;;3.80;71.30;;;;;;5063467;28;20123;-58
2021/03/21 01:28:24;;;;;;;9.32;7.15;;;3.80;71.50;;;;;;5065203;28;20029;-61
2021/03/21 01:30:51;;;;;;;8.95;6.88;;;3.90;71.60;;;;;;5057824;28;20087;-56
2021/03/21 01:33:17;;;;;;;11.05;7.55;;;3.90;71.80;;;;;;5060018;28;20555;-58
2021/03/21 01:35:43;;;;;;;11.93;7.38;;;3.90;72.10;;;;;;5060540;28;20029;-59
2021/03/21 01:38:09;;;;;;;10.95;7.53;;;3.90;72.40;;;;;;5068518;28;20051;-58
2021/03/21 01:40:36;;;;;;;9.65;7.55;;;3.90;72.80;;;;;;5062632;28;20040;-59
2021/03/21 01:43:02;;;;;;;12.23;7.90;;;3.90;73.00;;;;;;5061785;28;20021;-58
2021/03/21 01:45:33;;;;;;;11.20;7.43;;;3.80;73.20;;;;;;5063520;28;20029;-59
2021/03/21 01:48:04;;;;;;;11.13;7.85;;;3.90;72.80;;;;;;5044394;28;20041;-58
2021/03/21 01:50:53;;;;;;;12.35;8.18;;;3.80;73.20;;;;;;5062195;28;20029;-58
2021/03/21 01:53:21;;;;;;;10.13;8.10;;;3.80;73.90;;;;;;5065111;28;20052;-57
2021/03/21 01:55:48;;;;;;;11.05;8.13;;;3.80;74.10;;;;;;5066207;28;20072;-57
2021/03/21 01:58:15;;;;;;;11.57;7.90;;;3.80;74.20;;;;;;5063859;28;20123;-57
2021/03/21 02:00:40;;;;;;;11.55;8.10;;;3.80;74.40;;;;;;5066305;28;20029;-59
2021/03/21 02:03:07;;;;;;;14.75;9.02;;;3.90;74.20;;;;;;5064945;28;20069;-60
2021/03/21 02:05:36;;;;;;;11.48;8.93;;;3.90;74.20;;;;;;5064907;28;20025;-59
2021/03/21 02:08:27;;;;;;;13.52;8.70;;;4.00;74.10;;;;;;5047338;28;20029;-55
2021/03/21 02:11:13;;;;;;;13.10;9.38;;;4.00;74.40;;;;;;5066164;28;20094;-57
2021/03/21 02:13:43;;;;;;;12.52;8.73;;;4.00;74.60;;;;;;5065674;28;21371;-57
2021/03/21 02:16:14;;;;;;;14.95;9.60;;;4.00;75.00;;;;;;5067083;28;20049;-57
2021/03/21 02:19:07;;;;;;;10.70;8.10;;;4.00;75.20;;;;;;5066382;28;20040;-57
2021/03/21 02:21:39;;;;;;;11.90;8.63;;;4.00;75.20;;;;;;5054844;28;20526;-57
2021/03/21 02:24:50;;;;;;;14.30;8.68;;;4.00;75.30;;;;;;5057300;28;20165;-57
2021/03/21 02:27:58;;;;;;;11.82;8.20;;;4.00;75.10;;;;;;5075409;28;20028;-58
2021/03/21 02:30:35;;;;;;;11.88;8.40;;;3.90;75.60;;;;;;5064156;28;20041;-56
2021/03/21 02:33:16;;;;;;;12.00;7.82;;;3.80;75.60;;;;;;5074923;28;20434;-58
2021/03/21 02:36:15;;;;;;;11.27;8.10;;;3.80;75.60;;;;;;5074954;28;20033;-58
2021/03/21 02:39:36;;;;;;;11.10;8.23;;;3.80;75.80;;;;;;5074342;28;20035;-58
2021/03/21 02:42:09;;;;;;;12.38;8.60;;;3.90;75.90;;;;;;4992991;28;20023;-57
2021/03/21 02:44:39;;;;;;;12.90;8.38;;;3.80;76.30;;;;;;4977238;28;20494;-57
2021/03/21 02:47:12;;;;;;;11.27;8.75;;;3.70;76.40;;;;;;5046974;28;20040;-57
2021/03/21 02:49:45;;;;;;;14.43;8.63;;;3.70;76.40;;;;;;5073368;28;20044;-58
2021/03/21 02:52:17;;;;;;;11.30;8.40;;;3.70;76.30;;;;;;5065346;28;20082;-59
2021/03/21 02:55:06;;;;;;;10.57;8.00;;;3.70;76.40;;;;;;5074958;28;20036;-58
2021/03/21 02:57:37;;;;;;;12.23;9.05;;;3.80;76.30;;;;;;5074522;28;20040;-56
2021/03/21 03:00:06;;;;;;;13.32;9.60;;;3.80;76.10;;;;;;5074733;28;20056;-57
2021/03/21 03:02:53;;;;;;;13.63;8.52;;;3.80;76.00;;;;;;5056434;28;20032;-59
2021/03/21 03:05:31;;;;;;;16.25;9.00;;;3.80;75.90;;;;;;5074741;28;20075;-60
2021/03/21 03:08:08;;;;;;;15.93;10.48;;;3.90;77.00;;;;;;5074092;28;20112;-56
2021/03/21 03:10:42;;;;;;;14.05;10.00;;;3.90;77.00;;;;;;5074525;28;20044;-58
2021/03/21 03:13:18;;;;;;;14.55;9.77;;;3.90;77.40;;;;;;5074330;28;20046;-54
2021/03/21 03:15:44;;;;;;;13.75;10.35;;;3.90;78.20;;;;;;5074869;28;20407;-56
2021/03/21 03:18:37;;;;;;;13.65;10.27;;;4.00;78.60;;;;;;5071392;28;20400;-55
2021/03/21 03:21:09;;;;;;;16.60;10.95;;;3.90;79.00;;;;;;5054498;28;20112;-57
2021/03/21 03:23:47;;;;;;;15.52;10.98;;;4.00;79.00;;;;;;5068142;28;20549;-58
2021/03/21 03:26:22;;;;;;;14.48;11.65;;;4.10;79.10;;;;;;5054661;28;20033;-58
2021/03/21 03:28:59;;;;;;;;;;;4.10;79.50;;;;;;5069276;28;20075;-59
2021/03/21 03:31:28;;;;;;;17.92;12.60;;;4.10;79.70;;;;;;5074327;28;19904;-59
2021/03/21 03:33:54;;;;;;;15.90;10.63;;;4.10;79.20;;;;;;5073894;28;20036;-57
2021/03/21 03:36:19;;;;;;;17.63;10.82;;;4.10;79.10;;;;;;5056481;28;20025;-59
2021/03/21 03:38:47;;;;;;;15.80;12.25;;;4.10;79.30;;;;;;5073801;28;20044;-58
2021/03/21 03:41:26;;;;;;;16.77;10.90;;;4.10;79.30;;;;;;5073066;28;20038;-58
2021/03/21 03:43:59;;;;;;;17.35;12.48;;;4.00;79.70;;;;;;5073435;28;20040;-57
2021/03/21 03:47:06;;;;;;;14.40;10.90;;;4.00;80.00;;;;;;5074033;28;20510;-58
2021/03/21 03:49:37;;;;;;;15.15;10.63;;;4.00;80.20;;;;;;5072318;28;20044;-58
2021/03/21 03:52:22;;;;;;;15.70;12.27;;;3.90;80.90;;;;;;5074112;28;20055;-57
2021/03/21 03:54:59;;;;;;;15.90;12.10;;;3.90;81.30;;;;;;5036478;28;20060;-58
2021/03/21 03:57:30;;;;;;;19.08;12.27;;;3.90;81.60;;;;;;5054410;28;20028;-55
2021/03/21 04:00:08;;;;;;;16.02;11.85;;;3.90;82.00;;;;;;5073233;28;20028;-56
2021/03/21 04:02:55;;;;;;;17.45;12.25;;;3.90;82.20;;;;;;5073357;28;20028;-58
2021/03/21 04:05:31;;;;;;;16.98;12.48;;;3.90;82.60;;;;;;5055463;28;20060;-59
2021/03/21 04:08:00;;;;;;;18.15;12.88;;;3.80;83.30;;;;;;5071179;28;20028;-57
2021/03/21 04:10:35;;;;;;;22.83;14.77;;;3.80;83.60;;;;;;5072951;28;20558;-59
2021/03/21 04:13:46;;;;;;;19.00;13.52;;;3.80;84.00;;;;;;5073289;28;20058;-59
2021/03/21 04:16:22;;;;;;;18.52;13.35;;;3.80;84.00;;;;;;4991446;28;20030;-58
2021/03/21 04:19:00;;;;;;;19.23;14.07;;;3.90;83.80;;;;;;4990234;28;20042;-59
2021/03/21 04:21:41;;;;;;;19.75;14.23;;;4.00;84.10;;;;;;5041795;28;20042;-58
2021/03/21 04:24:19;;;;;;;18.38;14.60;;;4.00;84.80;;;;;;5072894;28;20044;-59
2021/03/21 04:27:03;;;;;;;22.63;14.93;;;4.10;85.10;;;;;;5072687;28;20032;-60
2021/03/21 04:29:48;;;;;;;26.63;16.13;;;4.10;84.40;;;;;;5072493;28;20043;-57
2021/03/21 04:32:21;;;;;;;20.30;14.68;;;4.30;84.20;;;;;;5073042;28;20263;-58
2021/03/21 04:34:50;;;;;;;24.00;15.43;;;4.20;84.10;;;;;;5073091;28;20052;-55
2021/03/21 04:37:18;;;;;;;22.33;15.57;;;4.20;84.30;;;;;;5072844;28;20100;-57
2021/03/21 04:39:45;;;;;;;21.77;15.63;;;4.30;84.40;;;;;;5072239;28;20040;-57
2021/03/21 04:42:18;;;;;;;22.92;15.52;;;4.30;84.70;;;;;;5072720;28;20095;-57
2021/03/21 04:44:51;;;;;;;23.05;15.88;;;4.20;84.80;;;;;;5072835;28;20102;-58
2021/03/21 04:47:24;;;;;;;23.50;15.98;;;4.30;85.00;;;;;;5072723;28;20024;-58
2021/03/21 04:49:50;;;;;;;22.63;16.42;;;4.30;85.20;;;;;;5071271;28;20035;-59
2021/03/21 04:52:29;;;;;;;23.30;16.52;;;4.20;85.70;;;;;;5072401;28;20037;-58
2021/03/21 04:54:56;;;;;;;21.33;16.38;;;4.20;85.80;;;;;;5072441;28;20033;-58
2021/03/21 04:57:36;;;;;;;25.27;15.60;;;4.20;85.70;;;;;;5072177;28;20496;-57
2021/03/21 05:00:08;;;;;;;20.58;14.85;;;4.20;85.90;;;;;;5071940;28;20071;-57
2021/03/21 05:02:37;;;;;;;19.23;15.13;;;4.20;85.90;;;;;;5068832;28;20036;-58
2021/03/21 05:05:30;;;;;;;22.35;15.70;;;4.20;86.00;;;;;;5072440;28;20079;-58
2021/03/21 05:08:08;;;;;;;21.17;15.77;;;4.20;86.10;;;;;;5068987;28;20086;-59
2021/03/21 05:10:41;;;;;;;20.63;14.70;;;4.20;86.00;;;;;;5072701;28;20550;-57
2021/03/21 05:13:35;;;;;;;21.75;15.80;;;4.30;86.10;;;;;;5071990;28;20127;-57
2021/03/21 05:16:17;;;;;;;25.17;16.63;;;4.30;86.30;;;;;;5071916;28;20099;-57
2021/03/21 05:18:58;;;;;;;22.42;15.30;;;4.30;86.50;;;;;;5064487;28;20504;-59
2021/03/21 05:21:27;;;;;;;20.48;15.70;;;4.30;87.50;;;;;;5054718;28;20642;-59
2021/03/21 05:24:25;;;;;;;21.02;16.38;;;4.30;87.00;;;;;;5072161;28;20031;-58
2021/03/21 05:26:57;;;;;;;20.60;14.98;;;4.20;87.30;;;;;;5012676;28;20094;-60
2021/03/21 05:29:45;;;;;;;21.70;15.52;;;4.30;87.40;;;;;;5052821;28;20487;-58
2021/03/21 05:32:14;;;;;;;21.50;16.08;;;4.20;87.60;;;;;;5071924;28;20107;-58
2021/03/21 05:34:41;;;;;;;24.67;16.65;;;4.30;87.80;;;;;;5072285;28;20043;-58
2021/03/21 05:37:15;;;;;;;23.17;15.82;;;4.30;88.00;;;;;;5053678;28;20024;-58
2021/03/21 05:39:50;;;;;;;22.20;15.68;;;4.20;88.50;;;;;;5071756;28;20613;-58
2021/03/21 05:42:22;;;;;;;22.20;16.08;;;4.20;88.70;;;;;;5071809;28;20064;-57
2021/03/21 05:45:02;;;;;;;21.95;15.85;;;4.30;88.70;;;;;;5072366;28;20035;-56
2021/03/21 05:47:55;;;;;;;22.63;15.48;;;4.30;88.90;;;;;;5071724;28;20040;-59
2021/03/21 05:50:40;;;;;;;21.38;15.85;;;4.30;89.10;;;;;;5071856;28;20020;-58
2021/03/21 05:53:30;;;;;;;24.52;16.98;;;4.40;89.70;;;;;;5071774;28;20060;-58
2021/03/21 05:56:07;;;;;;;24.02;15.90;;;4.30;90.10;;;;;;5071844;28;20021;-59
2021/03/21 05:59:03;;;;;;;23.08;16.60;;;4.30;90.50;;;;;;5071320;28;20045;-59
2021/03/21 06:02:03;;;;;;;20.98;15.32;;;4.40;90.40;;;;;;5072961;28;20082;-60
2021/03/21 06:04:31;;;;;;;20.55;15.32;;;4.50;90.80;;;;;;5053273;28;20036;-58
2021/03/21 06:07:10;;;;;;;18.50;14.82;;;4.50;91.50;;;;;;5054644;28;20036;-58
2021/03/21 06:10:03;;;;;;;19.23;14.23;;;4.60;91.00;;;;;;5073125;28;20028;-58
2021/03/21 06:12:56;;;;;;;21.67;14.43;;;4.70;91.00;;;;;;5056001;28;20039;-59
2021/03/21 06:16:06;;;;;;;21.77;15.25;;;4.70;91.20;;;;;;5072971;28;20025;-56
2021/03/21 06:18:58;;;;;;;23.10;15.50;;;4.60;91.60;;;;;;5066124;28;20428;-59
2021/03/21 06:21:33;;;;;;;20.25;15.18;;;4.60;91.70;;;;;;5033395;28;20033;-59
2021/03/21 06:24:18;;;;;;;;;;;4.60;91.70;;;;;;5067132;28;20032;-60
2021/03/21 06:26:50;;;;;;;21.00;14.07;;;4.70;91.60;;;;;;5050954;28;19908;-59
2021/03/21 06:29:45;;;;;;;18.52;14.75;;;4.70;91.60;;;;;;5068855;28;20181;-61
2021/03/21 06:32:34;;;;;;;19.52;14.18;;;4.70;91.80;;;;;;5071449;28;20033;-59
2021/03/21 06:35:36;;;;;;;21.88;14.77;;;4.70;91.80;;;;;;5051337;28;20039;-60
2021/03/21 06:38:55;;;;;;;19.67;13.85;;;4.80;91.80;;;;;;5011298;28;20067;-59
2021/03/21 06:41:27;;;;;;;16.85;13.02;;;4.80;92.00;;;;;;5073856;28;20039;-61
2021/03/21 06:44:14;;;;;;;16.80;13.05;;;4.80;92.20;;;;;;5075035;28;20032;-59
2021/03/21 06:47:20;;;;;;;16.70;12.05;;;4.80;92.20;;;;;;5056929;28;20108;-59
2021/03/21 06:49:54;;;;;;;15.70;11.52;;;4.90;91.80;;;;;;5075437;28;20037;-59
2021/03/21 06:52:31;;;;;;;18.33;11.98;;;4.90;92.00;;;;;;5075152;28;20082;-56
2021/03/21 06:55:16;;;;;;;15.60;11.32;;;4.80;92.10;;;;;;5074596;28;20061;-58
2021/03/21 06:58:12;;;;;;;16.45;11.23;;;5.00;91.90;;;;;;5074522;28;20024;-59
2021/03/21 07:00:48;;;;;;;13.05;10.10;;;4.90;91.80;;;;;;5074770;28;20032;-59
2021/03/21 07:03:50;;;;;;;15.45;10.63;;;5.00;91.80;;;;;;5074588;28;20430;-58
2021/03/21 07:06:46;;;;;;;14.05;9.88;;;5.00;91.70;;;;;;5075033;28;20572;-59
2021/03/21 07:09:31;;;;;;;13.15;8.57;;;5.00;91.80;;;;;;5074341;28;20040;-59
2021/03/21 07:12:23;;;;;;;11.70;8.73;;;5.20;91.40;;;;;;5074777;28;20021;-59
2021/03/21 07:15:28;;;;;;;12.88;8.35;;;5.30;91.20;;;;;;5078080;28;20527;-58
2021/03/21 07:17:54;;;;;;;13.35;8.65;;;5.30;91.00;;;;;;5073003;28;20028;-59
2021/03/21 07:21:05;;;;;;;12.90;8.45;;;5.30;91.00;;;;;;5073050;28;20037;-59
2021/03/21 07:23:58;;;;;;;11.80;8.48;;;5.40;91.00;;;;;;5073778;28;20021;-58
2021/03/21 07:27:01;;;;;;;10.98;7.78;;;5.40;90.90;;;;;;5053806;28;20087;-57
2021/03/21 07:29:32;;;;;;;9.68;8.20;;;5.40;90.90;;;;;;5064028;28;20041;-59
2021/03/21 07:32:34;;;;;;;8.43;7.15;;;5.50;90.80;;;;;;5076297;28;20569;-59
2021/03/21 07:35:25;;;;;;;10.15;7.38;;;5.50;91.10;;;;;;5073942;28;20068;-62
2021/03/21 07:38:05;;;;;;;9.88;6.60;;;5.40;91.50;;;;;;5072944;28;20059;-60
2021/03/21 07:40:48;;;;;;;7.55;6.10;;;5.40;91.40;;;;;;5073796;28;20522;-59
2021/03/21 07:43:27;;;;;;;8.90;6.20;;;5.40;91.50;;;;;;5073294;28;20025;-58
2021/03/21 07:46:16;;;;;;;7.35;5.63;;;5.40;91.40;;;;;;5073619;28;20032;-58
2021/03/21 07:48:53;;;;;;;9.48;5.88;;;5.50;91.30;;;;;;5054510;28;20033;-58
2021/03/21 07:51:40;;;;;;;7.60;6.47;;;5.50;91.20;;;;;;5037947;28;20037;-59
2021/03/21 07:54:33;;;;;;;6.05;4.72;;;5.70;91.00;;;;;;5074849;28;20029;-60
2021/03/21 07:57:14;;;;;;;5.25;4.22;;;5.60;90.50;;;;;;5056658;28;20027;-62
2021/03/21 07:59:41;;;;;;;6.43;5.72;;;5.70;90.40;;;;;;5075635;28;20040;-59
2021/03/21 08:02:12;;;;;;;7.45;4.55;;;5.70;90.20;;;;;;5073754;28;20055;-59
2021/03/21 08:04:47;;;;;;;5.78;4.60;;;5.80;90.20;;;;;;5057405;28;20094;-60
2021/03/21 08:07:32;;;;;;;9.27;4.72;;;5.80;89.80;;;;;;5074470;28;20020;-60
2021/03/21 08:09:57;;;;;;;6.03;4.40;;;5.90;89.30;;;;;;5074027;28;20135;-57
2021/03/21 08:12:35;;;;;;;8.32;4.82;;;6.00;88.80;;;;;;5074305;28;20064;-60
2021/03/21 08:15:14;;;;;;;4.78;4.00;;;6.10;88.10;;;;;;5075139;28;20130;-61
2021/03/21 08:17:46;;;;;;;4.88;3.97;;;6.20;87.90;;;;;;5054822;28;20021;-60
2021/03/21 08:20:43;;;;;;;4.72;3.97;;;6.20;87.20;;;;;;5052995;28;20033;-60
2021/03/21 08:23:19;;;;;;;8.48;4.70;;;6.30;87.10;;;;;;5029398;28;20127;-59
2021/03/21 08:25:45;;;;;;;5.10;4.28;;;6.30;87.60;;;;;;5069617;28;20024;-60
2021/03/21 08:28:17;;;;;;;5.53;4.20;;;6.30;87.40;;;;;;5073693;28;20033;-58
2021/03/21 08:30:58;;;;;;;6.07;4.40;;;6.50;86.80;;;;;;5072711;28;20029;-59
2021/03/21 08:33:35;;;;;;;5.15;4.32;;;6.50;86.70;;;;;;5075413;28;20039;-60
2021/03/21 08:36:22;;;;;;;5.28;3.53;;;6.50;86.80;;;;;;5076189;28;20032;-60
2021/03/21 08:39:01;;;;;;;4.38;3.47;;;6.40;86.20;;;;;;5059133;28;20449;-59
2021/03/21 08:41:29;;;;;;;3.83;3.33;;;6.70;85.40;;;;;;5072188;28;20054;-61
2021/03/21 08:44:06;;;;;;;6.68;2.53;;;6.60;85.00;;;;;;5054723;28;20028;-57
2021/03/21 08:46:34;;;;;;;4.78;2.50;;;6.70;82.90;;;;;;5072368;28;20048;-58
2021/03/21 08:49:14;;;;;;;4.50;2.47;;;6.70;82.80;;;;;;5054826;28;20032;-56
2021/03/21 08:51:42;;;;;;;4.45;2.55;;;6.70;82.60;;;;;;5072576;28;20028;-56
2021/03/21 08:54:23;;;;;;;3.97;2.58;;;6.70;82.90;;;;;;5073946;28;20048;-57
2021/03/21 08:57:04;;;;;;;3.45;2.40;;;6.60;82.70;;;;;;5072133;28;20033;-52
2021/03/21 08:59:39;;;;;;;3.35;2.40;;;6.70;83.20;;;;;;5072234;28;20025;-58
2021/03/21 09:02:12;;;;;;;6.13;2.60;;;6.80;83.30;;;;;;5072290;28;20033;-55
2021/03/21 09:05:02;;;;;;;5.68;2.83;;;6.80;82.70;;;;;;5072551;28;20028;-55
2021/03/21 09:07:37;;;;;;;3.40;2.60;;;6.80;82.50;;;;;;5075020;28;20032;-54
2021/03/21 09:10:12;;;;;;;;;;;6.80;82.70;;;;;;5089554;28;20090;-57
2021/03/21 09:12:47;;;;;;;5.47;3.07;;;6.90;81.90;;;;;;5061748;28;19916;-57
2021/03/21 09:15:24;;;;;;;3.90;2.95;;;7.00;82.00;;;;;;5065653;28;20025;-54
2021/03/21 09:18:19;;;;;;;5.03;3.63;;;7.10;81.30;;;;;;5065046;28;20146;-55
2021/03/21 09:21:06;;;;;;;5.38;3.42;;;6.90;82.30;;;;;;5064017;28;20029;-51
2021/03/21 09:23:42;;;;;;;6.22;3.90;;;6.80;82.60;;;;;;5067437;28;20040;-56
2021/03/21 09:26:17;;;;;;;8.18;4.20;;;6.70;82.40;;;;;;5068869;28;20029;-54
2021/03/21 09:29:08;;;;;;;10.35;4.35;;;6.70;83.10;;;;;;5060362;28;20037;-57
2021/03/21 09:31:34;;;;;;;7.68;4.78;;;6.70;84.40;;;;;;5063474;28;20063;-58
2021/03/21 09:34:02;;;;;;;8.02;5.57;;;6.70;84.70;;;;;;5063621;28;20036;-59
2021/03/21 09:36:33;;;;;;;6.65;5.22;;;6.60;85.00;;;;;;5045297;28;20033;-60
2021/03/21 09:39:13;;;;;;;8.05;4.78;;;6.60;85.20;;;;;;5060298;28;20372;-54
2021/03/21 09:41:39;;;;;;;10.50;5.47;;;6.60;85.10;;;;;;5065896;28;21386;-55
2021/03/21 09:44:20;;;;;;;14.60;5.95;;;6.50;85.10;;;;;;5063821;28;20045;-56
2021/03/21 09:47:15;;;;;;;9.25;5.60;;;6.50;85.20;;;;;;5064155;28;20040;-53
2021/03/21 09:50:10;;;;;;;10.43;4.80;;;6.50;84.20;;;;;;5063339;28;20171;-56
2021/03/21 09:52:51;;;;;;;15.40;6.32;;;6.40;82.60;;;;;;5044936;28;20047;-56
2021/03/21 09:55:19;;;;;;;15.63;5.78;;;6.30;82.30;;;;;;5047375;28;20032;-57
2021/03/21 09:57:55;;;;;;;13.10;5.80;;;6.30;82.00;;;;;;5063703;28;20060;-58
2021/03/21 10:00:25;;;;;;;16.98;6.75;;;6.50;80.90;;;;;;5060554;28;20029;-58
2021/03/21 10:03:05;;;;;;;17.25;6.10;;;6.60;78.90;;;;;;5061629;28;20021;-55
2021/03/21 10:05:53;;;;;;;13.82;4.57;;;6.70;76.60;;;;;;5051606;28;20495;-58
2021/03/21 10:08:44;;;;;;;16.73;5.63;;;6.60;74.90;;;;;;5062920;28;20097;-56
2021/03/21 10:11:18;;;;;;;21.05;4.43;;;6.70;75.20;;;;;;5065958;28;20051;-58
2021/03/21 10:13:45;;;;;;;17.38;5.88;;;6.80;75.10;;;;;;5065042;28;20135;-56
2021/03/21 10:16:13;;;;;;;15.32;5.05;;;6.70;74.90;;;;;;5054572;28;20395;-55
2021/03/21 10:18:58;;;;;;;15.95;4.63;;;6.60;75.60;;;;;;5068678;28;20117;-52
2021/03/21 10:21:24;;;;;;;15.70;5.32;;;6.30;75.90;;;;;;5066588;28;20566;-57
2021/03/21 10:23:56;;;;;;;20.77;5.68;;;6.40;75.60;;;;;;5037306;28;20120;-57
2021/03/21 10:26:24;;;;;;;21.85;6.32;;;6.40;75.10;;;;;;5071840;28;20036;-56
2021/03/21 10:28:55;;;;;;;27.17;5.97;;;6.40;75.30;;;;;;5066531;28;20040;-55
2021/03/21 10:31:24;;;;;;;19.05;6.18;;;6.30;74.50;;;;;;5067072;28;20052;-59
2021/03/21 10:34:02;;;;;;;20.38;6.00;;;6.40;74.30;;;;;;5064153;28;20020;-55
2021/03/21 10:36:43;;;;;;;30.55;6.18;;;6.40;74.50;;;;;;5064159;28;20040;-59
2021/03/21 10:39:24;;;;;;;25.73;5.72;;;6.30;74.50;;;;;;5065253;28;20021;-58
2021/03/21 10:42:08;;;;;;;30.60;7.88;;;6.30;74.70;;;;;;5065547;28;20051;-58
2021/03/21 10:44:37;;;;;;;26.48;7.30;;;6.30;74.60;;;;;;5065390;28;20024;-57
2021/03/21 10:47:33;;;;;;;23.58;7.45;;;6.30;75.10;;;;;;5056257;28;20079;-54
2021/03/21 10:50:19;;;;;;;26.70;5.60;;;6.30;75.10;;;;;;5055386;28;20078;-58
2021/03/21 10:52:46;;;;;;;26.55;5.32;;;6.20;74.30;;;;;;5026192;28;20052;-57
2021/03/21 10:55:14;;;;;;;19.60;5.60;;;6.30;74.70;;;;;;5038922;28;20021;-58
2021/03/21 10:57:51;;;;;;;26.77;6.25;;;6.30;75.00;;;;;;5055182;28;20032;-55
2021/03/21 11:00:29;;;;;;;25.75;6.55;;;6.30;75.60;;;;;;5073138;28;20041;-57
2021/03/21 11:03:00;;;;;;;28.02;6.72;;;6.30;75.60;;;;;;5093487;28;20043;-57
2021/03/21 11:05:29;;;;;;;30.40;6.63;;;6.30;76.20;;;;;;5090955;28;20047;-56
2021/03/21 11:08:18;;;;;;;29.85;7.00;;;6.20;77.00;;;;;;5055417;28;20032;-55
2021/03/21 11:11:09;;;;;;;34.78;9.63;;;6.10;77.50;;;;;;5073302;28;20093;-57
2021/03/21 11:13:36;;;;;;;38.63;9.77;;;6.00;77.70;;;;;;5036764;28;20057;-57
2021/03/21 11:16:22;;;;;;;29.80;7.40;;;6.10;78.20;;;;;;5056101;28;20027;-59
2021/03/21 11:18:51;;;;;;;29.52;7.10;;;6.10;78.20;;;;;;5047514;28;20032;-59
2021/03/21 11:21:19;;;;;;;20.95;6.03;;;6.10;78.10;;;;;;5044428;28;20126;-53
2021/03/21 11:23:55;;;;;;;29.15;6.70;;;6.10;78.80;;;;;;5071552;28;20036;-57
2021/03/21 11:26:35;;;;;;;29.70;6.88;;;6.10;78.40;;;;;;5061549;28;20028;-58
2021/03/21 11:29:01;;;;;;;29.80;6.55;;;6.20;78.60;;;;;;5072952;28;20173;-58
2021/03/21 11:31:34;;;;;;;30.50;8.43;;;6.30;78.40;;;;;;5073855;28;20535;-55
2021/03/21 11:34:18;;;;;;;25.88;7.15;;;6.40;78.20;;;;;;5074495;28;20025;-58
2021/03/21 11:36:44;;;;;;;25.77;6.65;;;6.30;78.00;;;;;;5074033;28;20043;-59
2021/03/21 11:39:22;;;;;;;25.25;6.75;;;6.40;78.40;;;;;;5055850;28;20039;-58
2021/03/21 11:41:47;;;;;;;24.95;6.75;;;6.50;78.10;;;;;;5073895;28;20399;-57
2021/03/21 11:44:28;;;;;;;30.67;7.97;;;6.60;77.90;;;;;;5073784;28;20032;-57
2021/03/21 11:46:56;;;;;;;31.23;8.38;;;6.50;78.50;;;;;;5055595;28;20044;-58
2021/03/21 11:49:24;;;;;;;23.02;7.00;;;6.40;78.90;;;;;;5073405;28;20037;-57
2021/03/21 11:52:01;;;;;;;28.17;7.47;;;6.60;78.40;;;;;;5073759;28;20029;-60
2021/03/21 11:54:29;;;;;;;25.90;7.40;;;6.50;78.30;;;;;;5073980;28;20032;-58
2021/03/21 11:57:10;;;;;;;23.02;6.53;;;6.60;78.90;;;;;;5073771;28;20499;-56
2021/03/21 11:59:47;;;;;;;20.20;6.25;;;6.60;78.30;;;;;;5074528;28;20048;-58
2021/03/21 12:02:36;;;;;;;27.88;6.82;;;6.60;78.10;;;;;;5058230;28;20043;-60
2021/03/21 12:05:06;;;;;;;25.33;6.43;;;6.70;78.30;;;;;;5070902;28;20114;-55
2021/03/21 12:07:33;;;;;;;34.95;7.93;;;6.80;77.40;;;;;;5046893;28;20044;-58
2021/03/21 12:09:59;;;;;;;24.30;8.63;;;6.90;77.50;;;;;;5027727;28;20036;-57
2021/03/21 12:12:30;;;;;;;28.38;6.93;;;6.80;77.10;;;;;;5060044;28;20055;-55
2021/03/21 12:14:57;;;;;;;25.35;6.72;;;6.80;77.70;;;;;;5053991;28;20057;-57
2021/03/21 12:17:24;;;;;;;25.30;7.47;;;7.00;76.90;;;;;;5051337;28;20044;-58
2021/03/21 12:19:55;;;;;;;28.98;6.47;;;6.90;76.70;;;;;;5057778;28;20189;-59
2021/03/21 12:22:36;;;;;;;26.42;7.13;;;7.00;76.70;;;;;;5062125;28;20036;-57
2021/03/21 12:25:27;;;;;;;31.25;7.68;;;7.10;76.20;;;;;;5054959;28;20078;-62
2021/03/21 12:28:17;;;;;;;34.40;8.38;;;7.10;76.00;;;;;;5046521;28;20037;-58
2021/03/21 12:30:46;;;;;;;28.17;7.00;;;7.20;76.10;;;;;;5054084;28;20036;-58
2021/03/21 12:33:24;;;;;;;29.20;6.70;;;6.90;76.30;;;;;;5053359;28;20101;-59
2021/03/21 12:35:50;;;;;;;27.65;6.60;;;6.80;76.80;;;;;;5062434;28;20060;-61
2021/03/21 12:38:40;;;;;;;27.02;7.03;;;6.90;77.00;;;;;;5053767;28;20524;-59
2021/03/21 12:41:38;;;;;;;27.98;6.95;;;6.80;77.20;;;;;;5053570;28;20609;-58
2021/03/21 12:44:29;;;;;;;32.92;9.15;;;6.90;77.20;;;;;;5061012;28;20043;-59
2021/03/21 12:47:04;;;;;;;31.35;8.35;;;6.90;77.50;;;;;;5053388;28;20032;-57
2021/03/21 12:49:36;;;;;;;38.08;8.07;;;7.00;77.50;;;;;;5024509;28;20484;-60
2021/03/21 12:52:07;;;;;;;29.60;7.38;;;7.00;77.20;;;;;;5045831;28;20045;-57
2021/03/21 12:54:37;;;;;;;28.85;7.18;;;7.10;77.00;;;;;;5050502;28;20036;-59
2021/03/21 12:57:03;;;;;;;31.02;7.70;;;7.20;76.80;;;;;;5055632;28;20099;-56
2021/03/21 12:59:28;;;;;;;34.33;7.97;;;7.30;76.50;;;;;;5069178;28;20381;-57
2021/03/21 13:01:54;;;;;;;23.52;8.25;;;7.30;76.60;;;;;;5070436;28;20036;-59
2021/03/21 13:04:20;;;;;;;27.60;8.20;;;7.30;76.50;;;;;;5064372;28;20041;-57
2021/03/21 13:06:46;;;;;;;26.15;7.30;;;7.30;76.20;;;;;;5071002;28;20035;-59
2021/03/21 13:09:12;;;;;;;20.25;8.38;;;7.30;76.40;;;;;;5054474;28;20040;-59
2021/03/21 13:11:38;;;;;;;27.75;8.10;;;7.20;76.30;;;;;;5054058;28;20148;-57
2021/03/21 13:14:05;;;;;;;29.65;8.10;;;7.20;76.30;;;;;;5053037;28;20051;-59
2021/03/21 13:16:31;;;;;;;30.25;7.10;;;7.30;76.30;;;;;;5070860;28;20072;-58
2021/03/21 13:18:57;;;;;;;28.45;7.22;;;7.40;76.10;;;;;;5061583;28;20639;-59
2021/03/21 13:21:23;;;;;;;32.70;7.60;;;7.40;76.00;;;;;;5070529;28;20043;-59
2021/03/21 13:23:49;;;;;;;35.78;8.32;;;7.50;76.00;;;;;;5063922;28;20036;-58
2021/03/21 13:26:15;;;;;;;28.17;8.43;;;7.50;76.00;;;;;;5049522;28;20032;-61
2021/03/21 13:28:41;;;;;;;26.60;7.68;;;7.40;75.70;;;;;;5065275;28;20090;-70
2021/03/21 13:31:10;;;;;;;30.23;7.18;;;7.40;75.90;;;;;;5053941;28;20020;-60
2021/03/21 13:33:36;;;;;;;29.38;7.43;;;7.50;75.70;;;;;;5070871;28;20052;-59
2021/03/21 13:36:07;;;;;;;27.83;7.57;;;7.50;75.30;;;;;;5071161;28;20071;-60